createdAt,value
2022-11-22T00:02:25.948Z,17.10
2022-11-22T00:04:57.872Z,16.20
2022-11-22T00:07:26.832Z,13.90
2022-11-22T00:09:55.746Z,17.00
2022-11-22T00:12:24.755Z,17.70
2022-11-22T00:14:56.821Z,18.20
2022-11-22T00:17:26.107Z,19.10
2022-11-22T00:19:54.720Z,17.10
2022-11-22T00:22:23.780Z,17.60
2022-11-22T00:24:54.139Z,17.50
2022-11-22T00:27:22.911Z,13.10
2022-11-22T00:29:51.691Z,18.80
2022-11-22T00:32:20.590Z,18.90
2022-11-22T00:34:49.698Z,17.20
2022-11-22T00:37:19.193Z,16.60
2022-11-22T00:39:47.871Z,17.80
2022-11-22T00:42:17.280Z,17.80
2022-11-22T00:44:46.176Z,17.30
2022-11-22T00:47:14.960Z,14.60
2022-11-22T00:49:43.857Z,18.10
2022-11-22T00:52:12.648Z,17.10
2022-11-22T00:54:42.067Z,17.50
2022-11-22T00:57:10.732Z,20.10
2022-11-22T00:59:39.635Z,17.40
2022-11-22T01:02:08.508Z,16.40
2022-11-22T01:04:37.412Z,17.20
2022-11-22T01:07:06.241Z,15.10
2022-11-22T01:09:35.405Z,16.70
2022-11-22T01:12:04.692Z,15.80
2022-11-22T01:14:33.488Z,15.80
2022-11-22T01:17:02.371Z,16.80
2022-11-22T01:19:31.404Z,16.10
2022-11-22T01:22:00.260Z,16.70
2022-11-22T01:24:29.180Z,17.10
2022-11-22T01:26:58.149Z,16.60
2022-11-22T01:29:27.282Z,17.60
2022-11-22T01:31:56.234Z,17.60
2022-11-22T01:34:25.448Z,17.70
2022-11-22T01:36:54.229Z,14.10
2022-11-22T01:39:23.217Z,17.80
2022-11-22T01:41:52.107Z,17.60
2022-11-22T01:44:30.164Z,18.40
2022-11-22T01:47:06.486Z,16.50
2022-11-22T01:50:06.405Z,19.40
2022-11-22T01:52:35.756Z,19.80
2022-11-22T01:55:13.027Z,18.70
2022-11-22T01:57:44.443Z,18.40
2022-11-22T02:00:17.263Z,17.40
2022-11-22T02:02:58.813Z,18.50
2022-11-22T02:05:33.620Z,18.30
2022-11-22T02:08:26.806Z,17.90
2022-11-22T02:10:57.243Z,19.30
2022-11-22T02:13:27.663Z,20.00
2022-11-22T02:15:57.786Z,19.20
2022-11-22T02:18:26.984Z,19.60
2022-11-22T02:20:56.214Z,20.20
2022-11-22T02:23:44.120Z,19.50
2022-11-22T02:26:13.727Z,19.10
2022-11-22T02:28:43.233Z,20.70
2022-11-22T02:31:35.885Z,19.90
2022-11-22T02:34:05.083Z,20.50
2022-11-22T02:36:40.042Z,19.90
2022-11-22T02:39:11.213Z,20.80
2022-11-22T02:41:40.663Z,20.90
2022-11-22T02:44:11.207Z,21.20
2022-11-22T02:46:53.108Z,21.70
2022-11-22T02:49:25.476Z,20.10
2022-11-22T02:51:54.257Z,21.40
2022-11-22T02:54:23.146Z,21.40
2022-11-22T02:56:51.955Z,19.40
2022-11-22T02:59:20.745Z,20.00
2022-11-22T03:01:49.820Z,21.60
2022-11-22T03:04:36.830Z,21.00
2022-11-22T03:07:05.962Z,21.40
2022-11-22T03:09:34.818Z,20.70
2022-11-22T03:12:04.121Z,21.90
2022-11-22T03:14:32.816Z,20.20
2022-11-22T03:17:01.604Z,22.60
2022-11-22T03:19:30.656Z,22.80
2022-11-22T03:21:59.584Z,22.60
2022-11-22T03:24:28.472Z,21.60
2022-11-22T03:26:57.373Z,22.10
2022-11-22T03:29:26.256Z,20.00
2022-11-22T03:31:55.674Z,23.40
2022-11-22T03:34:24.561Z,20.10
2022-11-22T03:36:53.459Z,19.60
2022-11-22T03:39:22.241Z,16.80
2022-11-22T03:41:51.229Z,19.70
2022-11-22T03:44:20.120Z,17.50
2022-11-22T03:46:49.222Z,19.00
2022-11-22T03:49:18.014Z,17.80
2022-11-22T03:51:47.111Z,19.20
2022-11-22T03:54:16.204Z,18.90
2022-11-22T03:56:44.999Z,19.80
2022-11-22T03:59:13.894Z,16.70
2022-11-22T04:01:42.908Z,17.50
2022-11-22T04:04:11.801Z,18.90
2022-11-22T04:06:40.553Z,19.60
2022-11-22T04:09:11.841Z,17.90
2022-11-22T04:11:41.511Z,18.20
2022-11-22T04:14:32.228Z,18.40
2022-11-22T04:17:01.151Z,17.50
2022-11-22T04:19:30.361Z,16.40
2022-11-22T04:21:59.397Z,17.50
2022-11-22T04:24:46.736Z,17.60
2022-11-22T04:27:15.617Z,12.20
2022-11-22T04:29:44.611Z,8.70
2022-11-22T04:32:32.152Z,11.90
2022-11-22T04:35:00.946Z,11.60
2022-11-22T04:37:29.817Z,15.20
2022-11-22T04:39:58.795Z,13.30
2022-11-22T04:42:46.344Z,13.30
2022-11-22T04:45:15.234Z,16.20
2022-11-22T04:48:02.361Z,15.80
2022-11-22T04:50:51.016Z,18.10
2022-11-22T04:53:20.320Z,12.30
2022-11-22T04:55:49.215Z,14.90
2022-11-22T04:58:18.412Z,13.80
2022-11-22T05:00:47.523Z,16.20
2022-11-22T05:03:17.434Z,17.10
2022-11-22T05:05:46.218Z,17.20
2022-11-22T05:08:15.611Z,18.80
2022-11-22T05:10:59.981Z,20.30
2022-11-22T05:13:38.195Z,17.00
2022-11-22T05:16:10.061Z,19.90
2022-11-22T05:18:38.825Z,18.40
2022-11-22T05:21:14.305Z,20.00
2022-11-22T05:23:54.949Z,20.90
2022-11-22T05:26:35.996Z,21.70
2022-11-22T05:29:11.172Z,20.00
2022-11-22T05:31:41.012Z,20.90
2022-11-22T05:34:09.748Z,22.50
2022-11-22T05:36:38.638Z,21.20
2022-11-22T05:39:07.542Z,20.60
2022-11-22T05:41:36.328Z,20.00
2022-11-22T05:44:05.932Z,19.30
2022-11-22T05:46:34.725Z,21.70
2022-11-22T05:49:03.589Z,20.00
2022-11-22T05:51:34.964Z,18.70
2022-11-22T05:54:04.365Z,18.50
2022-11-22T05:56:33.357Z,18.20
2022-11-22T05:59:02.167Z,19.20
2022-11-22T06:01:30.812Z,13.50
2022-11-22T06:03:59.620Z,17.40
2022-11-22T06:06:28.421Z,16.90
2022-11-22T06:08:58.842Z,18.60
2022-11-22T06:11:28.551Z,19.90
2022-11-22T06:14:00.508Z,20.60
2022-11-22T06:16:29.618Z,17.30
2022-11-22T06:18:58.623Z,21.50
2022-11-22T06:21:28.970Z,19.60
2022-11-22T06:23:58.385Z,20.30
2022-11-22T06:26:27.332Z,14.30
2022-11-22T06:28:56.217Z,18.60
2022-11-22T06:31:27.913Z,15.00
2022-11-22T06:34:00.162Z,19.10
2022-11-22T06:36:32.308Z,13.70
2022-11-22T06:39:05.103Z,19.70
2022-11-22T06:41:37.582Z,15.90
2022-11-22T06:44:09.147Z,15.00
2022-11-22T06:46:38.231Z,13.80
2022-11-22T06:49:07.112Z,12.70
2022-11-22T06:51:36.017Z,17.30
2022-11-22T06:54:05.210Z,14.70
2022-11-22T06:56:38.658Z,11.40
2022-11-22T06:59:09.036Z,8.80
2022-11-22T07:01:39.080Z,14.20
2022-11-22T07:04:08.142Z,12.80
2022-11-22T07:06:39.024Z,12.70
2022-11-22T07:09:11.055Z,17.20
2022-11-22T07:11:41.016Z,14.50
2022-11-22T07:14:09.963Z,15.80
2022-11-22T07:16:39.686Z,16.10
2022-11-22T07:19:08.298Z,59.00
2022-11-22T07:21:40.533Z,23.50
2022-11-22T07:24:09.525Z,20.80
2022-11-22T07:26:38.313Z,24.60
2022-11-22T07:29:07.245Z,20.50
2022-11-22T07:31:35.992Z,17.90
2022-11-22T07:34:04.892Z,13.40
2022-11-22T07:36:33.766Z,16.20
2022-11-22T07:39:03.704Z,18.70
2022-11-22T07:41:32.377Z,13.20
2022-11-22T07:44:01.493Z,18.10
2022-11-22T07:46:31.976Z,21.40
2022-11-22T07:49:02.887Z,19.30
2022-11-22T07:51:31.627Z,17.20
2022-11-22T07:54:00.535Z,19.90
2022-11-22T07:56:29.409Z,24.70
2022-11-22T07:58:58.296Z,22.40
2022-11-22T08:01:27.268Z,21.70
2022-11-22T08:03:57.111Z,20.90
2022-11-22T08:06:25.898Z,19.50
2022-11-22T08:09:00.338Z,20.30
2022-11-22T08:11:30.849Z,17.10
2022-11-22T08:13:59.939Z,20.20
2022-11-22T08:16:29.036Z,19.10
2022-11-22T08:18:58.339Z,17.00
2022-11-22T08:21:27.137Z,20.70
2022-11-22T08:23:59.309Z,18.40
2022-11-22T08:26:28.094Z,17.30
2022-11-22T08:28:57.085Z,19.00
2022-11-22T08:31:27.351Z,18.00
2022-11-22T08:33:56.307Z,18.50
2022-11-22T08:36:25.188Z,16.70
2022-11-22T08:38:54.599Z,16.00
2022-11-22T08:41:24.005Z,19.20
2022-11-22T08:43:54.326Z,16.40
2022-11-22T08:46:23.229Z,16.30
2022-11-22T08:48:54.583Z,18.60
2022-11-22T08:51:23.250Z,20.60
2022-11-22T08:53:52.347Z,20.30
2022-11-22T08:56:21.233Z,18.10
2022-11-22T08:58:50.166Z,18.80
2022-11-22T09:01:19.586Z,17.90
2022-11-22T09:03:48.840Z,17.50
2022-11-22T09:11:58.733Z,21.10
2022-11-22T09:14:27.516Z,18.00
2022-11-22T09:16:56.408Z,21.50
2022-11-22T09:19:25.295Z,17.30
2022-11-22T09:21:54.182Z,18.20
2022-11-22T09:24:23.099Z,17.60
2022-11-22T09:26:52.067Z,19.90
2022-11-22T09:29:21.072Z,16.70
2022-11-22T09:31:50.002Z,16.90
2022-11-22T09:34:18.851Z,18.20
2022-11-22T09:36:47.963Z,18.30
2022-11-22T09:39:16.580Z,16.00
2022-11-22T09:42:11.834Z,19.50
2022-11-22T09:45:37.155Z,20.50
2022-11-22T09:48:26.935Z,22.00
2022-11-22T09:51:20.401Z,16.80
2022-11-22T09:53:58.611Z,18.80
2022-11-22T09:56:29.865Z,20.60
2022-11-22T09:59:21.696Z,17.90
2022-11-22T10:02:19.475Z,17.40
2022-11-22T10:05:01.484Z,17.90
2022-11-22T10:07:38.076Z,19.50
2022-11-22T10:10:25.637Z,21.40
2022-11-22T10:13:12.157Z,21.90
2022-11-22T10:16:19.562Z,22.30
2022-11-22T10:19:02.271Z,18.00
2022-11-22T10:21:31.069Z,20.70
2022-11-22T10:23:59.958Z,18.70
2022-11-22T10:26:34.657Z,13.80
2022-11-22T10:29:15.391Z,17.00
2022-11-22T10:31:44.032Z,18.00
2022-11-22T10:34:36.628Z,16.90
2022-11-22T10:37:39.987Z,17.80
2022-11-22T10:40:48.298Z,16.40
2022-11-22T10:44:12.640Z,14.20
2022-11-22T10:47:07.086Z,17.60
2022-11-22T10:50:01.891Z,14.90
2022-11-22T10:53:11.332Z,14.10
2022-11-22T10:56:35.621Z,15.10
2022-11-22T10:59:38.294Z,17.60
2022-11-22T11:02:33.311Z,14.40
2022-11-22T11:05:08.122Z,15.50
2022-11-22T11:07:42.632Z,16.00
2022-11-22T11:10:30.797Z,16.20
2022-11-22T11:13:23.765Z,17.50
2022-11-22T11:16:00.134Z,15.80
2022-11-22T11:18:57.484Z,16.20
2022-11-22T11:21:27.441Z,15.30
2022-11-22T11:23:56.593Z,14.30
2022-11-22T11:26:34.855Z,15.60
2022-11-22T11:29:18.966Z,16.90
2022-11-22T11:31:51.185Z,16.20
2022-11-22T11:34:26.275Z,14.90
2022-11-22T11:36:58.008Z,13.90
2022-11-22T11:39:35.120Z,16.50
2022-11-22T11:42:23.322Z,17.80
2022-11-22T11:44:52.555Z,15.80
2022-11-22T11:47:35.696Z,14.50
2022-11-22T11:50:20.942Z,17.20
2022-11-22T11:53:05.611Z,14.00
2022-11-22T11:55:36.881Z,13.90
2022-11-22T11:58:24.147Z,14.50
2022-11-22T12:00:53.501Z,15.60
2022-11-22T12:03:23.503Z,16.20
2022-11-22T12:06:13.171Z,19.90
2022-11-22T12:08:42.296Z,19.40
2022-11-22T12:11:23.973Z,19.90
2022-11-22T12:14:19.574Z,18.10
2022-11-22T12:16:58.039Z,17.10
2022-11-22T12:20:03.741Z,19.10
2022-11-22T12:22:53.333Z,17.80
2022-11-22T12:25:43.584Z,20.80
2022-11-22T12:28:25.346Z,18.80
2022-11-22T12:31:21.456Z,21.00
2022-11-22T12:33:59.073Z,18.50
2022-11-22T12:36:53.133Z,18.90
2022-11-22T12:39:27.246Z,19.60
2022-11-22T12:42:25.642Z,17.40
2022-11-22T12:45:34.838Z,19.20
2022-11-22T12:49:02.948Z,14.40
2022-11-22T12:51:31.827Z,16.40
2022-11-22T12:54:05.678Z,12.10
2022-11-22T12:56:53.893Z,17.90
2022-11-22T12:59:59.136Z,13.70
2022-11-22T13:03:03.870Z,14.10
2022-11-22T13:05:52.339Z,13.00
2022-11-22T13:08:26.730Z,22.90
2022-11-22T13:11:23.593Z,13.20
2022-11-22T13:14:00.768Z,12.30
2022-11-22T13:16:29.688Z,10.20
2022-11-22T13:19:07.466Z,11.40
2022-11-22T13:22:00.925Z,12.70
2022-11-22T13:25:24.084Z,13.00
2022-11-22T13:27:59.040Z,12.30
2022-11-22T13:30:30.817Z,12.90
2022-11-22T13:33:01.523Z,12.90
2022-11-22T13:35:37.247Z,12.40
2022-11-22T13:38:16.897Z,13.10
2022-11-22T13:40:52.487Z,14.80
2022-11-22T13:43:23.397Z,13.40
2022-11-22T13:46:05.471Z,14.50
2022-11-22T13:48:40.756Z,14.00
2022-11-22T13:51:19.045Z,14.00
2022-11-22T13:53:49.637Z,15.20
2022-11-22T13:56:22.280Z,14.60
2022-11-22T13:59:04.853Z,14.10
2022-11-22T14:01:37.084Z,14.00
2022-11-22T14:04:25.211Z,14.60
2022-11-22T14:18:55.516Z,16.40
2022-11-22T14:21:39.759Z,18.20
2022-11-22T14:24:30.258Z,19.20
2022-11-22T14:27:39.597Z,20.50
2022-11-22T14:30:22.133Z,19.20
2022-11-22T14:33:14.494Z,23.10
2022-11-22T14:36:12.635Z,27.60
2022-11-22T14:38:43.780Z,24.20
2022-11-22T14:41:51.048Z,21.40
2022-11-22T14:44:26.331Z,26.30
2022-11-22T14:47:14.971Z,36.00
2022-11-22T14:49:48.908Z,34.00
2022-11-22T14:52:28.507Z,33.50
2022-11-22T14:55:15.640Z,52.60
2022-11-22T14:57:49.018Z,44.10
2022-11-22T15:00:24.355Z,41.20
2022-11-22T15:03:41.812Z,51.00
2022-11-22T15:09:19.924Z,43.80
2022-11-22T15:10:02.571Z,51.00
2022-11-22T15:12:40.845Z,44.40
2022-11-22T15:57:26.413Z,59.80
2022-11-22T15:59:56.936Z,65.70
2022-11-22T16:02:31.162Z,60.10
2022-11-22T16:06:06.817Z,63.90
2022-11-22T16:07:56.450Z,69.40
2022-11-22T16:10:39.407Z,68.00
2022-11-22T16:13:20.904Z,56.10
2022-11-22T16:16:12.320Z,53.30
2022-11-22T16:18:44.102Z,84.00
2022-11-22T16:21:12.856Z,66.70
2022-11-22T16:23:45.472Z,54.00
2022-11-22T16:26:31.677Z,56.20
2022-11-22T16:29:32.673Z,54.00
2022-11-22T16:32:16.672Z,49.80
2022-11-22T16:34:46.935Z,49.40
2022-11-22T16:37:37.796Z,53.20
2022-11-22T16:40:09.797Z,51.70
2022-11-22T16:42:39.545Z,53.70
2022-11-22T16:45:22.477Z,64.10
2022-11-22T16:48:03.781Z,65.80
2022-11-22T16:50:40.238Z,62.60
2022-11-22T16:53:15.915Z,66.00
2022-11-22T16:55:44.748Z,63.20
2022-11-22T16:58:20.710Z,58.00
2022-11-22T17:00:50.967Z,59.10
2022-11-22T17:03:29.894Z,57.40
2022-11-22T17:05:58.639Z,59.60
2022-11-22T17:08:27.393Z,59.70
2022-11-22T17:10:56.478Z,59.50
2022-11-22T17:13:27.305Z,63.20
2022-11-22T17:15:57.944Z,65.50
2022-11-22T17:18:26.624Z,59.50
2022-11-22T17:20:55.470Z,58.70
2022-11-22T17:23:36.742Z,59.80
2022-11-22T17:26:06.788Z,59.20
2022-11-22T17:28:35.436Z,54.40
2022-11-22T17:31:09.934Z,59.50
2022-11-22T17:33:38.596Z,53.70
2022-11-22T17:36:21.193Z,51.80
2022-11-22T17:38:50.067Z,55.90
2022-11-22T17:41:18.798Z,52.40
2022-11-22T17:43:47.482Z,53.00
2022-11-22T17:46:16.543Z,59.70
2022-11-22T17:48:54.703Z,69.40
2022-11-22T17:51:24.135Z,102.40
2022-11-22T17:53:53.158Z,103.90
2022-11-22T17:56:22.273Z,56.70
2022-11-22T17:58:51.990Z,68.50
2022-11-22T18:01:23.180Z,74.00
2022-11-22T18:03:52.275Z,86.30
2022-11-22T18:06:24.584Z,75.60
2022-11-22T18:08:53.735Z,80.80
2022-11-22T18:11:23.797Z,82.40
2022-11-22T18:13:53.106Z,83.00
2022-11-22T18:16:28.704Z,95.00
2022-11-22T18:18:59.466Z,85.80
2022-11-22T18:21:32.196Z,79.20
2022-11-22T18:24:02.229Z,72.80
2022-11-22T18:26:39.789Z,65.70
2022-11-22T18:32:02.587Z,75.20
2022-11-22T18:34:31.820Z,73.50
2022-11-22T18:37:03.573Z,80.10
2022-11-22T18:39:39.036Z,80.30
2022-11-22T18:42:14.184Z,77.80
2022-11-22T18:44:43.409Z,76.00
2022-11-22T18:47:12.058Z,73.80
2022-11-22T18:49:40.724Z,73.50
2022-11-22T18:52:13.325Z,75.90
2022-11-22T18:54:45.516Z,64.20
2022-11-22T18:57:14.661Z,80.10
2022-11-22T18:59:43.735Z,76.40
2022-11-22T19:02:12.423Z,72.00
2022-11-22T19:04:41.192Z,70.00
2022-11-22T19:07:10.002Z,69.90
2022-11-22T19:09:38.768Z,65.40
2022-11-22T19:12:07.562Z,73.40
2022-11-22T19:14:36.425Z,92.30
2022-11-22T19:17:05.767Z,88.80
2022-11-22T19:19:34.793Z,112.50
2022-11-22T19:22:04.004Z,115.80
2022-11-22T19:24:32.994Z,110.50
2022-11-22T19:27:01.999Z,94.90
2022-11-22T19:29:31.064Z,81.50
2022-11-22T19:32:00.093Z,85.90
2022-11-22T19:34:30.096Z,85.30
2022-11-22T19:37:00.465Z,84.00
2022-11-22T19:39:29.337Z,89.40
2022-11-22T19:41:58.239Z,83.80
2022-11-22T19:44:27.013Z,77.80
2022-11-22T19:46:55.858Z,80.80
2022-11-22T19:49:24.590Z,93.70
2022-11-22T19:51:53.913Z,85.90
2022-11-22T19:54:22.985Z,89.00
2022-11-22T19:56:52.100Z,84.10
2022-11-22T19:59:20.944Z,81.30
2022-11-22T20:01:49.659Z,83.80
2022-11-22T20:04:18.495Z,81.10
2022-11-22T20:06:50.204Z,76.40
2022-11-22T20:09:19.347Z,70.80
2022-11-22T20:11:48.097Z,74.80
2022-11-22T20:14:16.853Z,80.00
2022-11-22T20:16:45.467Z,73.70
2022-11-22T20:19:15.602Z,68.00
2022-11-22T20:21:45.029Z,63.00
2022-11-22T20:24:14.248Z,62.40
2022-11-22T20:26:44.055Z,62.00
2022-11-22T20:29:14.503Z,65.90
2022-11-22T20:31:43.214Z,71.90
2022-11-22T20:34:12.714Z,64.20
2022-11-22T20:36:41.578Z,65.80
2022-11-22T20:39:11.019Z,62.40
2022-11-22T20:41:40.907Z,65.10
2022-11-22T20:44:14.154Z,64.20
2022-11-22T20:46:43.420Z,58.70
2022-11-22T20:49:12.638Z,70.90
2022-11-22T20:51:42.469Z,71.30
2022-11-22T20:54:12.831Z,63.60
2022-11-22T20:56:41.524Z,64.20
2022-11-22T20:59:10.420Z,65.20
2022-11-22T21:01:39.353Z,61.10
2022-11-22T21:04:08.097Z,57.00
2022-11-22T21:06:36.785Z,59.40
2022-11-22T21:09:05.495Z,60.80
2022-11-22T21:11:35.166Z,61.00
2022-11-22T21:14:03.911Z,61.60
2022-11-22T21:16:32.541Z,68.20
2022-11-22T21:19:07.456Z,57.60
2022-11-22T21:21:37.376Z,58.90
2022-11-22T21:24:07.850Z,55.60
2022-11-22T21:26:36.657Z,58.50
2022-11-22T21:29:15.940Z,77.70
2022-11-22T21:31:45.416Z,61.40
2022-11-22T21:34:15.174Z,59.20
2022-11-22T21:36:43.876Z,63.60
2022-11-22T21:39:12.551Z,60.80
2022-11-22T21:41:41.604Z,65.70
2022-11-22T21:44:11.259Z,72.00
2022-11-22T21:46:40.098Z,64.50
2022-11-22T21:49:08.785Z,62.70
2022-11-22T21:51:37.534Z,67.10
2022-11-22T21:54:06.306Z,65.30
2022-11-22T21:56:35.360Z,68.20
2022-11-22T21:59:04.355Z,64.50
2022-11-22T22:01:33.903Z,62.00
2022-11-22T22:04:04.713Z,58.30
2022-11-22T22:06:33.543Z,59.70
2022-11-22T22:09:02.507Z,63.40
2022-11-22T22:11:31.375Z,65.90
2022-11-22T22:14:00.095Z,68.50
2022-11-22T22:16:28.910Z,67.70
2022-11-22T22:18:57.601Z,64.30
2022-11-22T22:21:26.717Z,67.60
2022-11-22T22:23:55.328Z,70.00
2022-11-22T22:26:23.907Z,71.10
2022-11-22T22:28:53.508Z,64.80
2022-11-22T22:31:23.938Z,63.40
2022-11-22T22:33:57.851Z,61.00
2022-11-22T22:36:27.694Z,64.50
2022-11-22T22:38:56.343Z,69.60
2022-11-22T22:41:25.009Z,61.90
2022-11-22T22:43:53.667Z,64.20
2022-11-22T22:46:27.369Z,70.40
2022-11-22T22:48:56.571Z,64.60
2022-11-22T22:51:33.127Z,64.10
2022-11-22T22:54:02.472Z,65.10
2022-11-22T22:56:32.735Z,64.50
2022-11-22T22:59:01.513Z,65.70
2022-11-22T23:01:32.039Z,62.40
2022-11-22T23:04:02.494Z,62.60
2022-11-22T23:06:37.682Z,64.90
2022-11-22T23:09:10.269Z,76.90
2022-11-22T23:11:57.710Z,93.80
2022-11-22T23:14:29.482Z,64.50
2022-11-22T23:16:58.645Z,62.40
2022-11-22T23:19:28.652Z,64.30
2022-11-22T23:21:57.564Z,57.20
2022-11-22T23:24:26.216Z,61.20
2022-11-22T23:26:54.897Z,63.20
2022-11-22T23:29:23.569Z,61.60
2022-11-22T23:31:52.860Z,61.00
2022-11-22T23:34:21.606Z,57.90
2022-11-22T23:36:50.434Z,53.80
2022-11-22T23:39:20.054Z,52.90
2022-11-22T23:41:48.829Z,51.50
2022-11-22T23:44:17.399Z,50.60
2022-11-22T23:46:46.030Z,54.10
2022-11-22T23:49:14.660Z,54.30
2022-11-22T23:51:43.307Z,54.90
2022-11-22T23:54:12.007Z,53.00
2022-11-22T23:56:40.765Z,51.20
2022-11-22T23:59:09.748Z,50.10
